Time;durP1;ratioP1;P1;durP2;ratioP2;P2;SDS_P1;SDS_P2;PMS_P1;PMS_P2;Temp;Humidity;BMP_temperature;BMP_pressure;BME280_temperature;BME280_humidity;BME280_pressure;Samples;Min_cycle;Max_cycle;Signal;HPM_P1;HPM_P2
2024/01/23 00:00:37;;;;;;;32.42;4.68;;;;;;;8.81;100.00;101833.50;5301514;27;20027;-74
2024/01/23 00:03:07;;;;;;;21.88;3.67;;;;;;;8.81;100.00;101841.53;5286760;27;20023;-73
2024/01/23 00:05:38;;;;;;;21.75;3.20;;;;;;;8.77;100.00;101853.47;5296956;27;20488;-74
2024/01/23 00:08:08;;;;;;;25.38;4.25;;;;;;;8.75;100.00;101866.16;5297552;27;20029;-74
2024/01/23 00:10:39;;;;;;;20.55;3.80;;;;;;;8.76;100.00;101857.13;5292693;27;20514;-74
2024/01/23 00:13:09;;;;;;;23.45;4.13;;;;;;;8.73;100.00;101868.09;5284236;27;20039;-73
2024/01/23 00:15:40;;;;;;;31.10;4.60;;;;;;;8.74;100.00;101880.50;5289911;27;20472;-73
2024/01/23 00:18:10;;;;;;;24.08;3.28;;;;;;;8.74;100.00;101893.88;5296945;27;20156;-74
2024/01/23 00:20:41;;;;;;;31.98;3.85;;;;;;;8.75;100.00;101903.59;5286613;27;20027;-73
2024/01/23 00:23:11;;;;;;;22.70;3.35;;;;;;;8.69;100.00;101904.13;5290085;27;20024;-73
2024/01/23 00:25:42;;;;;;;25.05;3.50;;;;;;;8.76;100.00;101911.50;5295516;27;20046;-73
2024/01/23 00:28:13;;;;;;;17.60;3.15;;;;;;;8.72;100.00;101907.38;5285477;27;20024;-73
2024/01/23 00:30:44;;;;;;;24.33;3.90;;;;;;;8.65;100.00;101908.03;5289488;27;20031;-73
2024/01/23 00:33:14;;;;;;;27.35;3.67;;;;;;;8.62;100.00;101914.47;5296073;27;20050;-73
2024/01/23 00:35:45;;;;;;;26.40;5.70;;;;;;;8.62;100.00;101937.69;5294416;27;20027;-74
2024/01/23 00:38:15;;;;;;;27.40;3.58;;;;;;;8.65;100.00;101930.28;5290687;27;20476;-73
2024/01/23 00:40:46;;;;;;;22.95;3.47;;;;;;;8.58;100.00;101926.38;5293182;27;20540;-74
2024/01/23 00:43:16;;;;;;;23.88;3.25;;;;;;;8.62;100.00;101933.19;5296300;27;20033;-73
2024/01/23 00:45:47;;;;;;;26.58;3.13;;;;;;;8.61;100.00;101930.66;5289250;27;20388;-73
2024/01/23 00:48:18;;;;;;;25.17;3.47;;;;;;;8.66;100.00;101933.78;5295756;27;20019;-73
2024/01/23 00:50:48;;;;;;;21.85;2.97;;;;;;;8.61;100.00;101934.16;5295843;27;20476;-73
2024/01/23 00:53:20;;;;;;;28.23;3.38;;;;;;;8.68;100.00;101950.56;5290231;27;20104;-73
2024/01/23 00:55:50;;;;;;;25.60;3.38;;;;;;;8.64;100.00;101959.84;5284303;27;20045;-73
2024/01/23 00:58:21;;;;;;;25.30;2.85;;;;;;;8.63;100.00;101963.47;5291266;27;20030;-74
2024/01/23 01:00:51;;;;;;;31.45;4.10;;;;;;;8.62;100.00;101984.00;5293304;27;20357;-74
2024/01/23 01:03:22;;;;;;;22.50;3.40;;;;;;;8.59;100.00;101978.09;5297738;27;20395;-74
2024/01/23 01:05:52;;;;;;;17.77;2.90;;;;;;;8.56;100.00;101973.81;5289542;27;20030;-73
2024/01/23 01:08:23;;;;;;;33.90;4.65;;;;;;;8.50;100.00;101979.69;5284860;28;20030;-74
2024/01/23 01:10:53;;;;;;;26.65;3.65;;;;;;;8.44;100.00;101994.41;5291985;27;20019;-74
2024/01/23 01:13:24;;;;;;;21.42;4.28;;;;;;;8.48;100.00;101985.16;5292221;27;20017;-74
2024/01/23 01:15:54;;;;;;;21.48;3.70;;;;;;;8.51;100.00;101981.38;5289075;27;20369;-74
2024/01/23 01:18:25;;;;;;;23.77;3.17;;;;;;;8.46;100.00;101987.09;5284578;27;20025;-74
2024/01/23 01:20:55;;;;;;;33.58;4.88;;;;;;;8.48;100.00;101985.16;5294931;27;20038;-74
2024/01/23 01:23:26;;;;;;;27.30;3.70;;;;;;;8.47;100.00;101999.47;5294469;27;20023;-74
2024/01/23 01:25:56;;;;;;;28.80;5.07;;;;;;;8.43;100.00;102005.19;5294340;27;20026;-74
2024/01/23 01:28:27;;;;;;;18.75;3.65;;;;;;;8.45;100.00;102006.78;5294484;27;20473;-74
2024/01/23 01:30:58;;;;;;;24.27;3.45;;;;;;;8.40;100.00;102024.19;5289504;27;20496;-74
2024/01/23 01:33:28;;;;;;;24.48;4.47;;;;;;;8.37;100.00;102022.59;5294505;27;20110;-74
2024/01/23 01:35:59;;;;;;;42.33;5.43;;;;;;;8.30;100.00;102027.56;5289033;27;20019;-74
2024/01/23 01:38:30;;;;;;;26.90;3.83;;;;;;;8.33;100.00;102031.78;5291389;27;20388;-74
2024/01/23 01:41:00;;;;;;;35.30;3.95;;;;;;;8.29;100.00;102025.03;5297160;27;20083;-74
2024/01/23 01:43:31;;;;;;;29.25;3.67;;;;;;;8.24;100.00;102038.75;5283771;28;20529;-74
2024/01/23 01:46:15;;;;;;;31.80;4.40;;;;;;;8.23;100.00;102050.44;5284115;28;20027;-74
2024/01/23 01:48:46;;;;;;;24.48;3.33;;;;;;;8.20;100.00;102049.81;5284719;28;20069;-74
2024/01/23 01:51:22;;;;;;;25.90;4.25;;;;;;;8.28;100.00;102056.25;5290967;27;20043;-74
2024/01/23 01:53:53;;;;;;;23.45;4.10;;;;;;;8.23;100.00;102057.56;5298026;27;20021;-74
2024/01/23 01:56:24;;;;;;;27.13;4.60;;;;;;;8.23;100.00;102066.47;5283148;28;20024;-74
2024/01/23 01:58:57;;;;;;;23.13;3.83;;;;;;;8.16;100.00;102067.06;5284128;28;20058;-74
2024/01/23 02:01:28;;;;;;;34.63;4.55;;;;;;;8.09;100.00;102076.53;5295780;28;20016;-74
2024/01/23 02:03:58;;;;;;;23.92;4.22;;;;;;;8.05;100.00;102079.44;5292631;27;20038;-74
2024/01/23 02:06:30;;;;;;;27.48;3.78;;;;;;;8.01;100.00;102080.66;5295106;28;20027;-74
2024/01/23 02:09:01;;;;;;;25.95;5.00;;;;;;;8.01;100.00;102080.66;5288610;27;20477;-74
2024/01/23 02:11:32;;;;;;;35.67;3.50;;;;;;;7.99;100.00;102089.78;5284642;28;20052;-74
2024/01/23 02:14:03;;;;;;;32.72;4.40;;;;;;;7.92;100.00;102086.69;5287082;27;20015;-74
2024/01/23 02:16:34;;;;;;;39.70;4.30;;;;;;;7.92;100.00;102083.19;5287779;28;20062;-74
2024/01/23 02:19:04;;;;;;;22.08;5.03;;;;;;;7.83;100.00;102084.75;5288839;28;20052;-74
2024/01/23 02:21:35;;;;;;;28.85;4.22;;;;;;;7.84;100.00;102098.97;5284028;28;20855;-74
2024/01/23 02:24:05;;;;;;;30.30;4.18;;;;;;;7.94;100.00;102099.97;5282085;28;20027;-74
2024/01/23 02:26:51;;;;;;;21.83;3.53;;;;;;;7.98;100.00;102109.41;5289129;28;20019;-74
2024/01/23 02:29:22;;;;;;;25.90;3.45;;;;;;;7.97;100.00;102127.28;5293168;27;20092;-74
2024/01/23 02:31:52;;;;;;;27.02;3.42;;;;;;;7.89;100.00;102137.72;5288814;28;20079;-74
2024/01/23 02:34:24;;;;;;;26.23;3.38;;;;;;;7.90;100.00;102128.72;5285104;28;20077;-74
2024/01/23 02:36:54;;;;;;;29.63;5.22;;;;;;;7.90;100.00;102126.06;5291802;27;20021;-74
2024/01/23 02:39:27;;;;;;;27.73;4.40;;;;;;;7.84;100.00;102125.69;5293770;28;20015;-74
2024/01/23 02:41:58;;;;;;;28.52;3.63;;;;;;;7.78;100.00;102132.31;5296356;27;20592;-74
2024/01/23 02:44:28;;;;;;;31.95;4.63;;;;;;;7.76;100.00;102144.97;5288479;28;20084;-74
2024/01/23 02:46:59;;;;;;;26.85;4.25;;;;;;;7.77;100.00;102147.50;5288368;28;20051;-74
2024/01/23 02:49:30;;;;;;;28.88;3.75;;;;;;;7.76;100.00;102161.84;5289998;27;20084;-74
2024/01/23 02:52:03;;;;;;;29.42;4.68;;;;;;;7.68;100.00;102144.69;5292926;27;20110;-74
2024/01/23 02:54:34;;;;;;;31.70;4.88;;;;;;;7.80;100.00;102157.13;5296628;27;20556;-74
2024/01/23 02:57:04;;;;;;;30.45;3.63;;;;;;;7.78;100.00;102164.38;5291940;27;20063;-74
2024/01/23 02:59:39;;;;;;;27.13;3.47;;;;;;;7.81;100.00;102165.97;5295053;27;20023;-74
2024/01/23 03:02:10;;;;;;;31.30;4.25;;;;;;;7.71;100.00;102173.84;5289137;27;20039;-74
2024/01/23 03:04:46;;;;;;;30.25;3.40;;;;;;;7.66;100.00;102173.34;5295661;27;20022;-74
2024/01/23 03:07:18;;;;;;;16.88;3.05;;;;;;;7.64;100.00;102175.28;5295962;27;20540;-74
2024/01/23 03:09:49;;;;;;;19.92;2.80;;;;;;;7.57;100.00;102172.19;5284227;27;20051;-74
2024/01/23 03:12:33;;;;;;;17.70;3.15;;;;;;;7.50;100.00;102174.47;5291552;27;20043;-74
2024/01/23 03:15:04;;;;;;;25.17;3.00;;;;;;;7.51;100.00;102186.00;5295467;27;20422;-74
2024/01/23 03:17:42;;;;;;;20.70;3.33;;;;;;;7.49;100.00;102187.94;5294018;27;20027;-74
2024/01/23 03:20:13;;;;;;;14.20;2.75;;;;;;;7.49;100.00;102202.16;5295867;27;20034;-74
2024/01/23 03:22:50;;;;;;;28.38;3.05;;;;;;;7.41;100.00;102201.00;5291752;27;20023;-74
2024/01/23 03:25:20;;;;;;;20.45;4.32;;;;;;;7.35;100.00;102199.63;5286482;28;20035;-74
2024/01/23 03:27:51;;;;;;;26.58;3.00;;;;;;;7.38;100.00;102202.09;5290129;27;20794;-74
2024/01/23 03:30:28;;;;;;;21.85;3.22;;;;;;;7.35;100.00;102207.66;5288861;27;20486;-74
2024/01/23 03:32:59;;;;;;;23.67;3.63;;;;;;;7.31;100.00;102216.84;5291200;27;20018;-74
2024/01/23 03:35:29;;;;;;;26.48;3.20;;;;;;;7.34;100.00;102213.97;5291777;27;20031;-74
2024/01/23 03:38:00;;;;;;;25.98;3.90;;;;;;;7.31;100.00;102232.00;5293769;27;20019;-74
2024/01/23 03:40:30;;;;;;;23.65;3.40;;;;;;;7.28;100.00;102238.44;5290038;27;20035;-74
2024/01/23 03:43:01;;;;;;;18.88;2.58;;;;;;;7.29;100.00;102241.97;5293691;27;20023;-74
2024/01/23 03:45:31;;;;;;;24.88;3.15;;;;;;;7.26;100.00;102241.19;5285616;27;20042;-74
2024/01/23 03:48:03;;;;;;;23.65;3.30;;;;;;;7.23;100.00;102248.59;5295786;27;20389;-74
2024/01/23 03:50:33;;;;;;;20.23;3.08;;;;;;;7.16;100.00;102250.84;5292126;27;20036;-74
2024/01/23 03:53:04;;;;;;;19.98;2.95;;;;;;;7.15;100.00;102250.94;5288975;27;20023;-75
2024/01/23 03:55:34;;;;;;;19.90;2.80;;;;;;;7.17;100.00;102255.19;5291893;27;20397;-74
2024/01/23 03:58:05;;;;;;;14.95;3.05;;;;;;;7.10;100.00;102255.75;5292764;27;20094;-74
2024/01/23 04:00:35;;;;;;;32.15;3.72;;;;;;;7.16;100.00;102268.66;5287520;27;20024;-74
2024/01/23 04:03:06;;;;;;;19.10;3.47;;;;;;;7.13;100.00;102268.88;5294456;27;20023;-74
2024/01/23 04:05:36;;;;;;;24.20;3.92;;;;;;;7.07;100.00;102286.19;5293881;27;20038;-74
2024/01/23 04:08:08;;;;;;;33.55;4.75;;;;;;;7.06;100.00;102283.63;5290205;27;20381;-74
2024/01/23 04:10:38;;;;;;;25.42;5.32;;;;;;;7.02;100.00;102282.97;5289706;27;20062;-74
2024/01/23 04:13:09;;;;;;;14.32;3.33;;;;;;;6.99;100.00;102291.22;5287557;27;20444;-74
2024/01/23 04:15:39;;;;;;;26.98;4.43;;;;;;;6.99;100.00;102299.22;5290444;27;20027;-74
2024/01/23 04:18:10;;;;;;;27.90;3.80;;;;;;;6.92;100.00;102306.78;5290484;27;20481;-74
2024/01/23 04:20:40;;;;;;;30.13;3.28;;;;;;;6.95;100.00;102313.72;5296282;27;20031;-74
2024/01/23 04:23:11;;;;;;;24.58;3.58;;;;;;;6.86;100.00;102315.22;5293066;27;20015;-74
2024/01/23 04:25:41;;;;;;;22.08;2.92;;;;;;;6.84;100.00;102318.97;5285148;28;20087;-74
2024/01/23 04:28:12;;;;;;;24.60;3.53;;;;;;;6.81;100.00;102325.34;5289917;27;20022;-74
2024/01/23 04:30:42;;;;;;;22.92;4.13;;;;;;;6.78;100.00;102324.69;5285608;28;20472;-74
2024/01/23 04:33:13;;;;;;;29.73;4.13;;;;;;;6.78;100.00;102324.69;5284033;28;20015;-74
2024/01/23 04:35:43;;;;;;;20.52;3.00;;;;;;;6.77;100.00;102337.19;5288810;27;20480;-74
2024/01/23 04:38:14;;;;;;;30.48;5.13;;;;;;;6.75;100.00;102339.13;5289485;27;20029;-74
2024/01/23 04:40:44;;;;;;;28.48;4.00;;;;;;;6.80;100.00;102344.13;5295876;27;20018;-74
2024/01/23 04:43:15;;;;;;;22.00;2.97;;;;;;;6.77;100.00;102352.34;5292134;27;20076;-74
2024/01/23 04:45:45;;;;;;;28.48;4.03;;;;;;;6.77;100.00;102363.84;5290233;27;20038;-74
2024/01/23 04:48:16;;;;;;;65.72;25.92;;;;;;;6.81;100.00;102376.03;5287566;27;20163;-73
2024/01/23 04:50:46;;;;;;;123.43;46.00;;;;;;;6.73;100.00;102379.25;5285410;27;20460;-74
2024/01/23 04:53:18;;;;;;;121.20;46.55;;;;;;;6.67;100.00;102378.78;5283949;27;20024;-74
2024/01/23 04:55:49;;;;;;;59.33;20.20;;;;;;;6.64;100.00;102384.34;5291580;27;20027;-74
2024/01/23 04:58:19;;;;;;;112.38;48.50;;;;;;;6.64;100.00;102389.66;5285061;27;20068;-73
2024/01/23 05:00:49;;;;;;;146.30;66.10;;;;;;;6.65;100.00;102381.56;5292568;27;20035;-74
2024/01/23 05:03:20;;;;;;;60.85;25.63;;;;;;;6.68;100.00;102386.69;5283489;28;20047;-74
2024/01/23 05:05:50;;;;;;;32.67;7.50;;;;;;;6.66;100.00;102387.75;5281569;28;20027;-74
2024/01/23 05:08:21;;;;;;;31.48;3.67;;;;;;;6.60;100.00;102397.00;5289116;27;20019;-74
2024/01/23 05:10:52;;;;;;;44.92;5.25;;;;;;;6.63;100.00;102404.81;5291736;27;20019;-74
2024/01/23 05:13:22;;;;;;;32.05;5.00;;;;;;;6.57;100.00;102410.53;5285049;28;20015;-74
2024/01/23 05:15:53;;;;;;;26.83;4.65;;;;;;;6.48;100.00;102420.03;5287513;27;20050;-74
2024/01/23 05:18:23;;;;;;;28.85;3.20;;;;;;;6.50;100.00;102417.25;5292573;27;20034;-74
2024/01/23 05:20:54;;;;;;;23.90;3.75;;;;;;;6.49;100.00;102424.41;5287937;27;20027;-74
2024/01/23 05:23:25;;;;;;;36.72;6.38;;;;;;;6.51;100.00;102434.09;5288748;27;20036;-73
2024/01/23 05:25:56;;;;;;;24.92;3.92;;;;;;;6.45;100.00;102430.03;5283135;27;20020;-74
2024/01/23 05:28:26;;;;;;;22.35;4.63;;;;;;;6.44;100.00;102445.16;5287552;27;20026;-74
2024/01/23 05:30:57;;;;;;;27.70;4.28;;;;;;;6.43;100.00;102454.13;5287998;27;20027;-74
2024/01/23 05:33:27;;;;;;;20.67;3.42;;;;;;;6.43;100.00;102458.63;5288216;27;20058;-74
2024/01/23 05:35:58;;;;;;;30.20;3.72;;;;;;;6.40;100.00;102467.66;5287777;27;20020;-74
2024/01/23 05:38:28;;;;;;;24.25;5.07;;;;;;;6.42;100.00;102464.88;5288557;28;20059;-74
2024/01/23 05:40:59;;;;;;;28.67;4.18;;;;;;;6.38;100.00;102472.25;5289364;27;20023;-74
2024/01/23 05:43:29;;;;;;;28.13;3.75;;;;;;;6.35;100.00;102468.91;5284936;27;20123;-73
2024/01/23 05:46:01;;;;;;;34.28;13.25;;;;;;;6.36;100.00;102473.28;5279214;28;20080;-74
2024/01/23 05:48:32;;;;;;;85.10;40.05;;;;;;;6.36;100.00;102473.28;5278781;28;20027;-74
2024/01/23 05:51:03;;;;;;;117.50;53.35;;;;;;;6.32;100.00;102485.94;5287601;28;20476;-74
2024/01/23 05:53:34;;;;;;;119.82;51.92;;;;;;;6.30;100.00;102477.19;5290077;28;20027;-74
2024/01/23 05:56:05;;;;;;;54.33;21.77;;;;;;;6.28;100.00;102481.78;5286180;27;20016;-74
2024/01/23 05:58:36;;;;;;;36.85;14.52;;;;;;;6.26;100.00;102491.66;5291130;28;20038;-74
2024/01/23 06:01:06;;;;;;;31.13;11.23;;;;;;;6.25;100.00;102492.63;5283349;28;20019;-74
2024/01/23 06:03:38;;;;;;;30.90;6.78;;;;;;;6.31;100.00;102494.91;5283731;28;20028;-74
2024/01/23 06:06:09;;;;;;;34.08;7.05;;;;;;;6.28;100.00;102492.44;5288654;27;20412;-74
2024/01/23 06:08:39;;;;;;;27.33;6.03;;;;;;;6.26;100.00;102502.34;5289002;28;20035;-73
2024/01/23 06:11:10;;;;;;;36.05;9.25;;;;;;;6.23;100.00;102518.53;5285726;27;20046;-74
2024/01/23 06:13:40;;;;;;;22.90;3.72;;;;;;;6.22;100.00;102514.13;5287655;28;20019;-73
2024/01/23 06:16:11;;;;;;;42.25;12.32;;;;;;;6.21;100.00;102512.44;5290165;28;20023;-74
2024/01/23 06:18:41;;;;;;;24.95;4.30;;;;;;;6.18;100.00;102517.97;5284152;28;20024;-74
2024/01/23 06:21:12;;;;;;;23.23;6.00;;;;;;;6.18;100.00;102515.31;5291631;27;20096;-74
2024/01/23 06:23:42;;;;;;;25.42;4.75;;;;;;;6.13;100.00;102512.06;5288504;28;20045;-74
2024/01/23 06:26:13;;;;;;;30.98;5.30;;;;;;;6.14;100.00;102508.47;5288637;27;20051;-74
2024/01/23 06:28:45;;;;;;;20.92;3.72;;;;;;;6.13;100.00;102512.06;5291185;27;20032;-73
2024/01/23 06:31:16;;;;;;;26.15;3.22;;;;;;;6.12;100.00;102515.66;5291555;27;20496;-74
2024/01/23 06:33:46;;;;;;;21.35;6.70;;;;;;;6.06;100.00;102516.06;5292117;27;20027;-74
2024/01/23 06:36:17;;;;;;;21.58;3.55;;;;;;;6.01;100.00;102528.81;5288111;27;20030;-74
2024/01/23 06:38:47;;;;;;;36.75;4.90;;;;;;;6.01;100.00;102527.00;5293586;27;20056;-74
2024/01/23 06:41:18;;;;;;;24.40;3.05;;;;;;;6.05;100.00;102543.66;5294242;27;20023;-74
2024/01/23 06:43:48;;;;;;;20.90;3.22;;;;;;;6.03;100.00;102543.78;5289281;27;20035;-74
2024/01/23 06:46:20;;;;;;;19.55;2.72;;;;;;;6.00;100.00;102553.75;5285309;27;20703;-74
2024/01/23 06:48:50;;;;;;;27.48;3.42;;;;;;;5.97;100.00;102552.13;5295913;27;20387;-74
2024/01/23 06:51:22;;;;;;;27.13;3.00;;;;;;;5.93;100.00;102555.94;5286889;28;20020;-74
2024/01/23 06:53:55;;;;;;;25.08;3.05;;;;;;;5.95;100.00;102548.72;5274263;27;20055;-74
2024/01/23 06:56:25;;;;;;;14.88;3.58;;;;;;;5.89;100.00;102541.91;5282109;27;20031;-74
2024/01/23 06:58:56;;;;;;;20.40;4.15;;;;;;;5.86;100.00;102549.22;5292593;27;20027;-74
2024/01/23 07:01:27;;;;;;;21.77;4.00;;;;;;;5.90;100.00;102542.78;5291152;27;20105;-74
2024/01/23 07:03:57;;;;;;;16.85;3.55;;;;;;;5.91;100.00;102540.03;5287751;27;20027;-74
2024/01/23 07:06:28;;;;;;;22.92;4.88;;;;;;;5.84;100.00;102543.16;5285688;28;20019;-74
2024/01/23 07:08:58;;;;;;;48.10;6.47;;;;;;;5.79;100.00;102540.78;5287845;27;20480;-74
2024/01/23 07:11:29;;;;;;;33.33;4.07;;;;;;;5.82;100.00;102537.91;5282357;27;20019;-74
2024/01/23 07:13:59;;;;;;;27.60;4.93;;;;;;;5.82;100.00;102547.69;5283857;27;20019;-74
2024/01/23 07:16:30;;;;;;;26.77;3.80;;;;;;;5.79;100.00;102551.44;5280653;27;20040;-74
2024/01/23 07:19:01;;;;;;;29.15;3.72;;;;;;;5.79;100.00;102563.88;5288619;27;20110;-74
2024/01/23 07:21:31;;;;;;;31.40;5.43;;;;;;;5.69;100.00;102564.44;5289625;27;20030;-74
2024/01/23 07:24:02;;;;;;;18.80;4.13;;;;;;;5.64;100.00;102560.34;5285765;27;20027;-74
2024/01/23 07:26:32;;;;;;;25.40;3.60;;;;;;;5.72;100.00;102577.59;5286902;27;20023;-74
2024/01/23 07:29:03;;;;;;;26.85;4.50;;;;;;;5.67;100.00;102579.66;5287357;27;20617;-74
2024/01/23 07:31:33;;;;;;;17.90;3.30;;;;;;;5.57;100.00;102583.84;5288226;27;20532;-74
2024/01/23 07:34:04;;;;;;;20.70;3.13;;;;;;;5.65;100.00;102588.69;5293819;27;20022;-74
2024/01/23 07:36:35;;;;;;;24.25;3.78;;;;;;;5.58;100.00;102590.88;5282352;27;20084;-74
2024/01/23 07:39:06;;;;;;;22.85;3.83;;;;;;;5.61;100.00;102587.16;5289300;27;20035;-74
2024/01/23 07:41:36;;;;;;;22.08;3.55;;;;;;;5.62;100.00;102584.41;5286459;27;20070;-74
2024/01/23 07:44:06;;;;;;;35.17;4.65;;;;;;;5.56;100.00;102575.91;5291268;27;20023;-74
2024/01/23 07:46:37;;;;;;;32.15;4.05;;;;;;;5.63;100.00;102593.25;5288258;27;20080;-74
2024/01/23 07:49:07;;;;;;;23.90;3.85;;;;;;;5.67;100.00;102594.75;5289008;27;20110;-74
2024/01/23 07:51:46;;;;;;;30.98;4.95;;;;;;;5.66;100.00;102607.22;5285471;27;20026;-74
2024/01/23 07:54:17;;;;;;;42.70;7.05;;;;;;;5.72;100.00;102609.53;5282902;27;20043;-74
2024/01/23 07:56:50;;;;;;;22.55;4.55;;;;;;;5.79;100.00;102614.50;5282213;27;20066;-74
2024/01/23 07:59:20;;;;;;;31.05;5.03;;;;;;;5.86;100.00;102611.34;5272872;27;20027;-73
2024/01/23 08:01:51;;;;;;;26.70;4.50;;;;;;;5.87;100.00;102601.56;5279829;27;20034;-73
2024/01/23 08:04:21;;;;;;;22.25;4.13;;;;;;;6.04;100.00;102621.91;5282287;27;20461;-73
2024/01/23 08:06:52;;;;;;;39.13;4.13;;;;;;;6.14;100.00;102615.91;5281882;28;20031;-73
2024/01/23 08:09:23;;;;;;;31.38;5.47;;;;;;;6.34;100.00;102622.66;5288747;27;20019;-73
2024/01/23 08:11:54;;;;;;;24.98;5.53;;;;;;;6.47;100.00;102625.41;5281552;27;20932;-73
2024/01/23 08:14:24;;;;;;;39.70;4.63;;;;;;;6.59;100.00;102619.31;5286134;27;20015;-73
2024/01/23 08:16:55;;;;;;;31.83;5.78;;;;;;;6.82;100.00;102628.50;5286077;27;20456;-73
2024/01/23 08:19:26;;;;;;;38.50;6.63;;;;;;;7.03;100.00;102628.06;5286187;27;20024;-73
2024/01/23 08:21:57;;;;;;;35.50;4.93;;;;;;;7.14;100.00;102620.25;5284886;27;20011;-73
2024/01/23 08:24:29;;;;;;;29.42;4.80;;;;;;;7.42;100.00;102621.91;5286191;27;20031;-73
2024/01/23 08:26:59;;;;;;;38.90;5.03;;;;;;;7.72;100.00;102627.88;5285075;27;20424;-73
2024/01/23 08:29:30;;;;;;;28.98;5.03;;;;;;;7.91;100.00;102638.16;5285888;27;20032;-73
2024/01/23 08:32:00;;;;;;;46.88;4.50;;;;;;;7.98;100.00;102639.47;5290669;27;20094;-73
2024/01/23 08:34:31;;;;;;;34.22;4.15;;;;;;;7.92;100.00;102653.22;5288398;27;20023;-73
2024/01/23 08:37:02;;;;;;;35.53;4.70;;;;;;;7.78;100.00;102655.97;5278486;27;20015;-73
2024/01/23 08:39:32;;;;;;;27.05;4.00;;;;;;;7.71;100.00;102647.53;5286113;27;20031;-73
2024/01/23 08:42:04;;;;;;;25.58;4.15;;;;;;;7.74;100.00;102655.34;5288324;27;20551;-73
2024/01/23 08:44:36;;;;;;;31.38;3.95;;;;;;;7.78;100.00;102650.63;5287736;27;20032;-73
2024/01/23 08:47:06;;;;;;;30.92;4.35;;;;;;;7.78;100.00;102653.31;5283396;27;20019;-73
2024/01/23 08:49:37;;;;;;;34.53;4.78;;;;;;;8.14;100.00;102654.44;5280313;28;20034;-73
2024/01/23 08:52:07;;;;;;;35.17;4.78;;;;;;;8.54;100.00;102653.38;5282872;28;20380;-73
2024/01/23 08:54:39;;;;;;;38.00;5.18;;;;;;;8.65;100.00;102657.97;5287477;27;20030;-73
2024/01/23 08:57:09;;;;;;;37.08;5.47;;;;;;;8.77;100.00;102659.75;5283355;28;20034;-73
2024/01/23 08:59:40;;;;;;;23.48;4.07;;;;;;;9.11;100.00;102665.34;5285397;27;20031;-73
2024/01/23 09:02:13;;;;;;;25.30;6.30;;;;;;;9.70;100.00;102673.44;5284649;27;20086;-73
2024/01/23 09:04:43;;;;;;;30.05;5.18;;;;;;;9.84;100.00;102669.72;5288053;27;20128;-73
2024/01/23 09:07:14;;;;;;;31.45;4.25;;;;;;;10.36;100.00;102671.06;5285555;27;20497;-73
2024/01/23 09:09:44;;;;;;;31.85;5.25;;;;;;;10.53;100.00;102673.25;5283197;28;20027;-73
2024/01/23 09:12:17;;;;;;;35.40;9.70;;;;;;;10.85;100.00;102673.38;5285142;27;20062;-74
2024/01/23 09:14:47;;;;;;;45.60;7.53;;;;;;;10.94;100.00;102668.22;5280279;28;20027;-73
2024/01/23 09:17:18;;;;;;;34.55;11.07;;;;;;;11.18;100.00;102646.56;5282713;27;20504;-73
2024/01/23 09:19:48;;;;;;;32.10;5.93;;;;;;;11.20;100.00;102652.69;5281456;27;20027;-73
2024/01/23 09:22:19;;;;;;;36.38;7.80;;;;;;;11.26;100.00;102650.34;5281059;27;20016;-73
2024/01/23 09:24:49;;;;;;;31.33;4.90;;;;;;;11.23;100.00;102650.59;5286507;28;20042;-73
2024/01/23 09:27:20;;;;;;;37.90;9.95;;;;;;;11.41;100.00;102648.22;5286036;27;20389;-73
2024/01/23 09:29:50;;;;;;;29.05;5.65;;;;;;;11.48;100.00;102653.91;5286007;27;20027;-73
2024/01/23 09:32:21;;;;;;;29.52;5.25;;;;;;;11.25;100.00;102659.38;5283864;27;20106;-73
2024/01/23 09:34:51;;;;;;;37.60;6.45;;;;;;;11.26;100.00;102668.28;5288220;27;20027;-73
2024/01/23 09:37:22;;;;;;;37.38;5.10;;;;;;;11.10;100.00;102666.88;5286047;27;20026;-73
2024/01/23 09:39:54;;;;;;;34.03;5.57;;;;;;;11.32;100.00;102667.78;5279490;28;20040;-73
2024/01/23 09:42:25;;;;;;;25.33;5.32;;;;;;;11.87;100.00;102665.88;5280988;28;20378;-74
2024/01/23 09:44:56;;;;;;;26.40;4.45;;;;;;;11.83;100.00;102657.19;5282569;27;20027;-73
2024/01/23 09:47:27;;;;;;;31.30;5.00;;;;;;;11.83;100.00;102641.06;5285606;27;20503;-73
2024/01/23 09:49:59;;;;;;;37.42;6.22;;;;;;;12.05;100.00;102645.47;5286451;28;20392;-73
2024/01/23 09:52:33;;;;;;;30.23;6.15;;;;;;;11.90;100.00;102650.34;5287970;27;20031;-73
2024/01/23 09:55:04;;;;;;;39.40;6.23;;;;;;;11.82;100.00;102654.66;5286840;28;20028;-73
2024/01/23 09:57:35;;;;;;;31.02;4.75;;;;;;;11.70;100.00;102642.19;5280085;28;20043;-73
2024/01/23 10:00:07;;;;;;;27.65;5.50;;;;;;;11.26;100.00;102639.59;5288222;27;20023;-74
2024/01/23 10:02:40;;;;;;;34.10;5.90;;;;;;;11.22;100.00;102646.19;5289964;27;20036;-73
2024/01/23 10:05:14;;;;;;;32.15;5.13;;;;;;;10.78;100.00;102655.19;5289326;27;20038;-74
2024/01/23 10:07:45;;;;;;;34.45;5.78;;;;;;;10.68;100.00;102649.69;5287569;27;20043;-73
2024/01/23 10:10:17;;;;;;;30.77;5.47;;;;;;;10.54;100.00;102647.25;5292952;27;20015;-73
2024/01/23 10:12:48;;;;;;;34.03;5.80;;;;;;;10.07;100.00;102644.63;5289279;27;20027;-73
2024/01/23 10:15:22;;;;;;;37.47;5.78;;;;;;;9.87;100.00;102639.97;5287368;27;20047;-74
2024/01/23 10:17:53;;;;;;;43.05;5.57;;;;;;;9.85;100.00;102644.59;5279026;28;20046;-73
2024/01/23 10:20:24;;;;;;;29.63;6.00;;;;;;;9.82;100.00;102645.69;5289462;27;20108;-73
2024/01/23 10:22:56;;;;;;;30.60;5.10;;;;;;;9.89;100.00;102648.75;5288859;27;20035;-73
2024/01/23 10:25:28;;;;;;;37.35;5.72;;;;;;;9.73;100.00;102650.88;5289236;27;20534;-73
2024/01/23 10:27:59;;;;;;;40.75;6.20;;;;;;;9.68;100.00;102658.41;5288368;27;20484;-73
2024/01/23 10:30:29;;;;;;;31.45;5.55;;;;;;;9.42;100.00;102647.84;5287557;27;20072;-73
2024/01/23 10:33:00;;;;;;;50.35;6.05;;;;;;;9.48;100.00;102635.81;5288369;27;20028;-73
2024/01/23 10:35:33;;;;;;;37.55;6.95;;;;;;;9.63;100.00;102634.66;5292918;27;20373;-73
2024/01/23 10:38:06;;;;;;;38.60;5.60;;;;;;;9.71;100.00;102642.97;5290500;27;20106;-73
2024/01/23 10:40:37;;;;;;;38.83;6.05;;;;;;;9.75;100.00;102648.97;5282668;27;20035;-73
2024/01/23 10:43:09;;;;;;;60.08;6.70;;;;;;;9.65;100.00;102650.63;5286842;27;20019;-73
2024/01/23 10:45:39;;;;;;;54.47;6.63;;;;;;;9.39;100.00;102658.81;5289416;27;20656;-73
2024/01/23 10:48:10;;;;;;;49.00;6.45;;;;;;;9.52;100.00;102659.56;5288119;27;20031;-73
2024/01/23 10:50:40;;;;;;;37.47;6.50;;;;;;;9.65;100.00;102669.38;5287838;27;20039;-73
2024/01/23 10:53:15;;;;;;;46.20;5.60;;;;;;;9.65;100.00;102664.03;5286532;27;20031;-73
2024/01/23 10:55:46;;;;;;;39.47;6.03;;;;;;;9.59;100.00;102660.84;5280214;27;20031;-72
2024/01/23 10:58:26;;;;;;;35.38;4.90;;;;;;;9.51;100.00;102652.50;5287781;27;20031;-73
2024/01/23 11:00:59;;;;;;;39.88;6.43;;;;;;;9.53;100.00;102636.31;5290382;27;20027;-73
2024/01/23 11:03:34;;;;;;;35.55;5.13;;;;;;;9.62;100.00;102634.78;5288032;27;20172;-73
2024/01/23 11:06:12;;;;;;;52.92;6.97;;;;;;;9.63;100.00;102628.44;5285316;28;20468;-73
2024/01/23 11:08:48;;;;;;;43.25;6.63;;;;;;;9.79;100.00;102640.56;5285446;27;20064;-73
2024/01/23 11:11:41;;;;;;;57.90;7.50;;;;;;;9.71;100.00;102628.72;5285698;27;20511;-73
2024/01/23 11:14:25;;;;;;;42.85;6.65;;;;;;;9.73;100.00;102624.09;5280936;27;20015;-73
2024/01/23 11:17:08;;;;;;;38.00;5.72;;;;;;;9.89;100.00;102619.28;5286322;27;20031;-73
2024/01/23 11:19:41;;;;;;;56.42;7.35;;;;;;;10.09;100.00;102626.63;5286956;27;20023;-73
2024/01/23 11:22:12;;;;;;;30.83;5.15;;;;;;;10.09;100.00;102605.16;5286490;27;20081;-73
2024/01/23 11:24:46;;;;;;;32.45;5.18;;;;;;;10.10;100.00;102597.97;5287962;27;20020;-73
2024/01/23 11:27:19;;;;;;;43.72;6.10;;;;;;;10.23;100.00;102579.06;5285186;27;20084;-73
2024/01/23 11:29:51;;;;;;;55.55;6.40;;;;;;;10.37;100.00;102592.28;5283914;27;20027;-73
2024/01/23 11:32:24;;;;;;;42.80;6.65;;;;;;;10.29;100.00;102573.25;5285919;27;20053;-72